Noordam — PHET — position and weather

sailwx.info

Track history (hours):
 
Tides and Currents Weather Stations Pressure Air Temp Water Temp Dewpoint Dewpoint Depression Visibility Wind Speed Wind Dir Waves Ship Positions

Noordam (Netherlands)

Ship's website: http://www.hollandamerica.com/cruiseships/Noordam

Last reported at 2015-Jun-29 06:00 UTC. Time now 2015-Jun-30 19:37 UTC.
Position N 54°48' W 133°12'.

Type: Passenger vessel. MMSI: 246028000.

Wind from 320 at 11 knots

Barometer 1016.0 mb
Air temperature 14.5 ° C
Visibility: greater than 10.8 NM
Dewpoint 12.9 ° C

Date/timePositionNaut miles runAvg speedWind from/ knotsBaromVisibWave heightAir tempDewpointWater temp
2015-Jun-29 06:00N 54°48' W 133°12'1818.3 320 / 111016.010.8 14.512.9
2015-Jun-29 05:00N 54°36' W 132°48'29316.7 330 / 111016.010.8 14.512.7
2015-Jun-28 11:30N 50°53' W 127°36'1920.2
2015-Jun-28 10:34N 50°45' W 127°08'1918.8
2015-Jun-28 09:33N 50°35' W 126°42'1615.3
2015-Jun-28 08:30N 50°30' W 126°18'8114.7
2015-Jun-28 03:00N 49°42' W 124°36'715.3 300 / 321013.010.8 28.025.416.0
2015-Jun-28 02:32N 49°37' W 124°29'2019.7
2015-Jun-28 01:31N 49°27' W 124°02'2020.6
2015-Jun-28 00:33N 49°19' W 123°34'1818.0
2015-Jun-27 23:33N 49°18' W 123°07'1 0.9
2015-Jun-27 22:33N 49°17' W 123°07'0 0.0
2015-Jun-27 21:33N 49°17' W 123°07'0 0.0
2015-Jun-27 20:33N 49°17' W 123°07'0 0.0
2015-Jun-27 19:33N 49°17' W 123°07'0 0.0
2015-Jun-27 18:33N 49°17' W 123°07'0 0.0
2015-Jun-27 17:33N 49°17' W 123°07'0 0.0
2015-Jun-27 16:33N 49°17' W 123°07'0 0.0
2015-Jun-27 15:33N 49°17' W 123°07'0 0.0
2015-Jun-27 14:33N 49°17' W 123°07'2 1.5
2015-Jun-27 13:33N 49°19' W 123°08'1110.6
2015-Jun-27 12:33N 49°18' W 123°24'1110.8
2015-Jun-27 11:33N 49°18' W 123°41'1111.0
2015-Jun-27 10:33N 49°21' W 123°57'611.5
2015-Jun-27 10:00N 49°18' W 124°06'715.9 270 / 161016.0 5.4 19.015.5
2015-Jun-27 09:33N 49°23' W 124°13'4 6.3
2015-Jun-27 09:00N 49°24' W 124°18'715.2 300 / 171016.0 5.4 19.315.6
2015-Jun-27 08:33N 49°27' W 124°27'3 6.0
2015-Jun-27 08:00N 49°30' W 124°30'716.0 310 / 111016.0 5.4 19.815.6
2015-Jun-27 07:33N 49°35' W 124°37'1010.3
2015-Jun-27 06:33N 49°43' W 124°48'1110.6
2015-Jun-27 05:32N 49°51' W 124°59'1110.9
2015-Jun-27 04:33N 49°59' W 125°11'1212.0
2015-Jun-27 03:32N 50°09' W 125°21'1212.5
2015-Jun-27 02:33N 50°20' W 125°27'5814.4
2015-Jun-26 22:33N 50°41' W 126°52'1615.3
2015-Jun-26 21:32N 50°47' W 127°15'1515.6
2015-Jun-26 20:33N 50°53' W 127°37'1413.8
2015-Jun-26 19:33N 51°02' W 127°54'1817.6
2015-Jun-26 18:32N 51°12' W 128°18'36511.2
2015-Jun-25 10:00N 56°00' W 134°36'1818.0 090 / 251012.0 5.4 11.711.1
2015-Jun-25 09:00N 56°12' W 135°00'13317.8 090 / 201013.0 5.4 13.412.8
2015-Jun-25 01:31N 58°19' W 136°14'1111.5
2015-Jun-25 00:33N 58°27' W 136°01'1312.7
2015-Jun-24 23:33N 58°39' W 136°08'1918.6
2015-Jun-24 22:33N 58°51' W 136°36'11 1.9
2015-Jun-24 16:29N 58°45' W 136°17'1314.2
2015-Jun-24 15:33N 58°34' W 136°03'1111.3
2015-Jun-24 14:33N 58°23' W 135°57'9 9.4
2015-Jun-24 13:33N 58°18' W 135°43'1413.5
2015-Jun-24 12:33N 58°13' W 135°19'  
2015-Jun-21 13:33N 51°21' W 128°35'2019.4
2015-Jun-21 12:30N 51°08' W 128°11'1718.3
2015-Jun-21 11:33N 50°59' W 127°47'1514.9
2015-Jun-21 10:33N 50°50' W 127°28'1817.7
2015-Jun-21 09:33N 50°43' W 127°02'1616.5
2015-Jun-21 08:33N 50°34' W 126°41'7915.2
2015-Jun-21 03:22N 49°51' W 124°58'1921.5
2015-Jun-21 02:31N 49°40' W 124°35'2121.5
2015-Jun-21 01:32N 49°29' W 124°07'2221.5
2015-Jun-21 00:30N 49°21' W 123°35'1818.7
2015-Jun-20 23:33N 49°19' W 123°08'2 1.9
2015-Jun-20 22:32N 49°17' W 123°07'0 0.0
2015-Jun-20 21:32N 49°17' W 123°07'0 0.0
2015-Jun-20 20:32N 49°17' W 123°07'0 0.0
2015-Jun-20 19:32N 49°17' W 123°07'0 0.0
2015-Jun-20 18:32N 49°17' W 123°07'0 0.0
2015-Jun-20 17:32N 49°17' W 123°07'0 0.0
2015-Jun-20 16:32N 49°17' W 123°07'0 0.0
2015-Jun-20 15:32N 49°17' W 123°07'0 0.0
2015-Jun-20 14:32N 49°17' W 123°07'2 1.6
2015-Jun-20 13:33N 49°19' W 123°08'1010.4
2015-Jun-20 12:34N 49°18' W 123°24'1111.1
2015-Jun-20 11:33N 49°18' W 123°41'1110.7
2015-Jun-20 10:31N 49°20' W 123°58'1010.4
2015-Jun-20 09:33N 49°23' W 124°12'10 9.9
2015-Jun-20 08:33N 49°28' W 124°26'11 9.8
2015-Jun-20 07:29N 49°35' W 124°37'19 9.7
2015-Jun-20 05:29N 49°50' W 124°57'12514.0
2015-Jun-19 20:33N 50°57' W 127°43'1515.0
2015-Jun-19 19:34N 51°05' W 128°03'1616.2
2015-Jun-19 18:33N 51°14' W 128°24'  
Track history (hours):
 
Tides and Currents Weather Stations Pressure Air Temp Water Temp Dewpoint Dewpoint Depression Visibility Wind Speed Wind Dir Waves Ship Positions

Noordam (Netherlands)

Ship's website: http://www.hollandamerica.com/cruiseships/Noordam

Last reported at 2015-Jun-29 06:00 UTC. Time now 2015-Jun-30 19:37 UTC.
Position N 54°48' W 133°12'.

Type: Passenger vessel. MMSI: 246028000.

Wind from 320 at 11 knots

Barometer 1016.0 mb
Air temperature 14.5 ° C
Visibility: greater than 10.8 NM
Dewpoint 12.9 ° C

Date/timePositionNaut miles runAvg speedWind from/ knotsBaromVisibWave heightAir tempDewpointWater temp
2015-Jun-29 06:00N 54°48' W 133°12'1818.3 320 / 111016.010.8 14.512.9
2015-Jun-29 05:00N 54°36' W 132°48'29316.7 330 / 111016.010.8 14.512.7
2015-Jun-28 11:30N 50°53' W 127°36'1920.2
2015-Jun-28 10:34N 50°45' W 127°08'1918.8
2015-Jun-28 09:33N 50°35' W 126°42'1615.3
2015-Jun-28 08:30N 50°30' W 126°18'8114.7
2015-Jun-28 03:00N 49°42' W 124°36'715.3 300 / 321013.010.8 28.025.416.0
2015-Jun-28 02:32N 49°37' W 124°29'2019.7
2015-Jun-28 01:31N 49°27' W 124°02'2020.6
2015-Jun-28 00:33N 49°19' W 123°34'1818.0
2015-Jun-27 23:33N 49°18' W 123°07'1 0.9
2015-Jun-27 22:33N 49°17' W 123°07'0 0.0
2015-Jun-27 21:33N 49°17' W 123°07'0 0.0
2015-Jun-27 20:33N 49°17' W 123°07'0 0.0
2015-Jun-27 19:33N 49°17' W 123°07'0 0.0
2015-Jun-27 18:33N 49°17' W 123°07'0 0.0
2015-Jun-27 17:33N 49°17' W 123°07'0 0.0
2015-Jun-27 16:33N 49°17' W 123°07'0 0.0
2015-Jun-27 15:33N 49°17' W 123°07'0 0.0
2015-Jun-27 14:33N 49°17' W 123°07'2 1.5
2015-Jun-27 13:33N 49°19' W 123°08'1110.6
2015-Jun-27 12:33N 49°18' W 123°24'1110.8
2015-Jun-27 11:33N 49°18' W 123°41'1111.0
2015-Jun-27 10:33N 49°21' W 123°57'611.5
2015-Jun-27 10:00N 49°18' W 124°06'715.9 270 / 161016.0 5.4 19.015.5
2015-Jun-27 09:33N 49°23' W 124°13'4 6.3
2015-Jun-27 09:00N 49°24' W 124°18'715.2 300 / 171016.0 5.4 19.315.6
2015-Jun-27 08:33N 49°27' W 124°27'3 6.0
2015-Jun-27 08:00N 49°30' W 124°30'716.0 310 / 111016.0 5.4 19.815.6
2015-Jun-27 07:33N 49°35' W 124°37'1010.3
2015-Jun-27 06:33N 49°43' W 124°48'1110.6
2015-Jun-27 05:32N 49°51' W 124°59'1110.9
2015-Jun-27 04:33N 49°59' W 125°11'1212.0
2015-Jun-27 03:32N 50°09' W 125°21'1212.5
2015-Jun-27 02:33N 50°20' W 125°27'5814.4
2015-Jun-26 22:33N 50°41' W 126°52'1615.3
2015-Jun-26 21:32N 50°47' W 127°15'1515.6
2015-Jun-26 20:33N 50°53' W 127°37'1413.8
2015-Jun-26 19:33N 51°02' W 127°54'1817.6
2015-Jun-26 18:32N 51°12' W 128°18'36511.2
2015-Jun-25 10:00N 56°00' W 134°36'1818.0 090 / 251012.0 5.4 11.711.1
2015-Jun-25 09:00N 56°12' W 135°00'13317.8 090 / 201013.0 5.4 13.412.8
2015-Jun-25 01:31N 58°19' W 136°14'1111.5
2015-Jun-25 00:33N 58°27' W 136°01'1312.7
2015-Jun-24 23:33N 58°39' W 136°08'1918.6
2015-Jun-24 22:33N 58°51' W 136°36'11 1.9
2015-Jun-24 16:29N 58°45' W 136°17'1314.2
2015-Jun-24 15:33N 58°34' W 136°03'1111.3
2015-Jun-24 14:33N 58°23' W 135°57'9 9.4
2015-Jun-24 13:33N 58°18' W 135°43'1413.5
2015-Jun-24 12:33N 58°13' W 135°19'  
2015-Jun-21 13:33N 51°21' W 128°35'2019.4
2015-Jun-21 12:30N 51°08' W 128°11'1718.3
2015-Jun-21 11:33N 50°59' W 127°47'1514.9
2015-Jun-21 10:33N 50°50' W 127°28'1817.7
2015-Jun-21 09:33N 50°43' W 127°02'1616.5
2015-Jun-21 08:33N 50°34' W 126°41'7915.2
2015-Jun-21 03:22N 49°51' W 124°58'1921.5
2015-Jun-21 02:31N 49°40' W 124°35'2121.5
2015-Jun-21 01:32N 49°29' W 124°07'2221.5
2015-Jun-21 00:30N 49°21' W 123°35'1818.7
2015-Jun-20 23:33N 49°19' W 123°08'2 1.9
2015-Jun-20 22:32N 49°17' W 123°07'0 0.0
2015-Jun-20 21:32N 49°17' W 123°07'0 0.0
2015-Jun-20 20:32N 49°17' W 123°07'0 0.0
2015-Jun-20 19:32N 49°17' W 123°07'0 0.0
2015-Jun-20 18:32N 49°17' W 123°07'0 0.0
2015-Jun-20 17:32N 49°17' W 123°07'0 0.0
2015-Jun-20 16:32N 49°17' W 123°07'0 0.0
2015-Jun-20 15:32N 49°17' W 123°07'0 0.0
2015-Jun-20 14:32N 49°17' W 123°07'2 1.6
2015-Jun-20 13:33N 49°19' W 123°08'1010.4
2015-Jun-20 12:34N 49°18' W 123°24'1111.1
2015-Jun-20 11:33N 49°18' W 123°41'1110.7
2015-Jun-20 10:31N 49°20' W 123°58'1010.4
2015-Jun-20 09:33N 49°23' W 124°12'10 9.9
2015-Jun-20 08:33N 49°28' W 124°26'11 9.8
2015-Jun-20 07:29N 49°35' W 124°37'19 9.7
2015-Jun-20 05:29N 49°50' W 124°57'12514.0
2015-Jun-19 20:33N 50°57' W 127°43'1515.0
2015-Jun-19 19:34N 51°05' W 128°03'1616.2
2015-Jun-19 18:33N 51°14' W 128°24'  

Dump ship's entire track history